FJI260 NVVV-NFFN
Flight info
| Callsign | FJI260 |
|---|---|
| Flight time | 1h 15m |
| Altitude | 37000 |
| Route | KUSIN DCT BIROP B598 BEGIT |
| Aircraft | B38M/M-SDE1FGHILORVWXY/HB1 |
Departure
| Time | 2026-04-22 00:53 |
|---|---|
| Airport | Bauerfield International Airport (NVVV) |
Arrival
| Time | 2026-04-22 02:08 |
|---|---|
| Airport | Nadi International Airport (NFFN) |
| Time | Latitude | Longitude | Altitude | Speed | Heading |
|---|---|---|---|---|---|
| 2026-04-22 00:43 | -17.70071 | 168.31919 | 72 ft | 0 kts | 253° |
| 2026-04-22 00:49 | -17.70071 | 168.31918 | 72 ft | 0 kts | 258° |
| 2026-04-22 00:49 | -17.70065 | 168.31910 | 73 ft | 3 kts | 322° |
| 2026-04-22 00:49 | -17.70016 | 168.31919 | 74 ft | 10 kts | 23° |
| 2026-04-22 00:49 | -17.69942 | 168.31944 | 75 ft | 12 kts | 356° |
| 2026-04-22 00:50 | -17.69888 | 168.31886 | 78 ft | 12 kts | 298° |
| 2026-04-22 00:50 | -17.69846 | 168.31804 | 81 ft | 15 kts | 297° |
| 2026-04-22 00:50 | -17.69787 | 168.31684 | 79 ft | 23 kts | 298° |
| 2026-04-22 00:50 | -17.69698 | 168.31508 | 77 ft | 31 kts | 297° |
| 2026-04-22 00:51 | -17.69590 | 168.31298 | 76 ft | 33 kts | 298° |
| 2026-04-22 00:51 | -17.69486 | 168.31093 | 70 ft | 33 kts | 298° |
| 2026-04-22 00:51 | -17.69377 | 168.30874 | 70 ft | 29 kts | 298° |
| 2026-04-22 00:51 | -17.69250 | 168.30743 | 61 ft | 26 kts | 298° |
| 2026-04-22 00:52 | -17.69288 | 168.30700 | 59 ft | 7 kts | 132° |
| 2026-04-22 00:52 | -17.69296 | 168.30715 | 66 ft | 0 kts | 117° |
| 2026-04-22 00:52 | -17.69349 | 168.30821 | 61 ft | 52 kts | 118° |
| 2026-04-22 00:52 | -17.69645 | 168.31408 | 70 ft | 130 kts | 117° |
| 2026-04-22 00:53 | -17.70169 | 168.32457 | 251 ft | 183 kts | 117° |
| 2026-04-22 00:53 | -17.70808 | 168.33710 | 1119 ft | 204 kts | 117° |
| 2026-04-22 00:53 | -17.71747 | 168.34834 | 2226 ft | 212 kts | 149° |
| 2026-04-22 00:53 | -17.73186 | 168.35309 | 3160 ft | 225 kts | 170° |
| 2026-04-22 00:54 | -17.74805 | 168.35399 | 3983 ft | 241 kts | 174° |
| 2026-04-22 00:54 | -17.76520 | 168.35691 | 4722 ft | 259 kts | 162° |
| 2026-04-22 00:54 | -17.78214 | 168.36480 | 5445 ft | 274 kts | 146° |
| 2026-04-22 00:54 | -17.79656 | 168.37783 | 6506 ft | 275 kts | 130° |
| 2026-04-22 00:55 | -17.80755 | 168.39456 | 7417 ft | 282 kts | 115° |
| 2026-04-22 00:55 | -17.81388 | 168.41414 | 8351 ft | 286 kts | 99° |
| 2026-04-22 00:55 | -17.80971 | 168.45591 | 10071 ft | 296 kts | 65° |
| 2026-04-22 00:56 | -17.79930 | 168.47470 | 10741 ft | 306 kts | 48° |
| 2026-04-22 00:56 | -17.78343 | 168.49027 | 11225 ft | 320 kts | 30° |
| 2026-04-22 00:56 | -17.76379 | 168.50255 | 11709 ft | 339 kts | 34° |
| 2026-04-22 00:56 | -17.74794 | 168.52156 | 12329 ft | 357 kts | 53° |
| 2026-04-22 00:57 | -17.73388 | 168.54351 | 12866 ft | 369 kts | 51° |
| 2026-04-22 00:57 | -17.71914 | 168.56582 | 13591 ft | 373 kts | 50° |
| 2026-04-22 00:57 | -17.70422 | 168.58823 | 14372 ft | 377 kts | 50° |
| 2026-04-22 00:57 | -17.68942 | 168.61059 | 15156 ft | 380 kts | 53° |
| 2026-04-22 00:58 | -17.67862 | 168.63631 | 15877 ft | 394 kts | 71° |
| 2026-04-22 00:58 | -17.67538 | 168.66562 | 16577 ft | 406 kts | 86° |
| 2026-04-22 00:58 | -17.67550 | 168.69537 | 17207 ft | 411 kts | 86° |
| 2026-04-22 00:58 | -17.67580 | 168.72547 | 17817 ft | 415 kts | 86° |
| 2026-04-22 00:59 | -17.67625 | 168.75590 | 18433 ft | 419 kts | 86° |
| 2026-04-22 00:59 | -17.67680 | 168.78659 | 18988 ft | 423 kts | 86° |
| 2026-04-22 00:59 | -17.67738 | 168.81715 | 19536 ft | 427 kts | 86° |
| 2026-04-22 00:59 | -17.67798 | 168.84849 | 20076 ft | 431 kts | 86° |
| 2026-04-22 01:00 | -17.67858 | 168.88003 | 20596 ft | 435 kts | 87° |
| 2026-04-22 01:00 | -17.67919 | 168.91205 | 21079 ft | 439 kts | 87° |
| 2026-04-22 01:00 | -17.67979 | 168.94420 | 21584 ft | 443 kts | 87° |
| 2026-04-22 01:00 | -17.68039 | 168.97661 | 22069 ft | 446 kts | 87° |
| 2026-04-22 01:01 | -17.68099 | 169.00927 | 22525 ft | 450 kts | 87° |
| 2026-04-22 01:01 | -17.68159 | 169.04216 | 22960 ft | 453 kts | 87° |
| 2026-04-22 01:01 | -17.68219 | 169.07532 | 23403 ft | 457 kts | 87° |
| 2026-04-22 01:01 | -17.68279 | 169.10873 | 23795 ft | 460 kts | 87° |
| 2026-04-22 01:02 | -17.68339 | 169.14239 | 24226 ft | 463 kts | 87° |
| 2026-04-22 01:02 | -17.68398 | 169.17628 | 24636 ft | 466 kts | 87° |
| 2026-04-22 01:02 | -17.68457 | 169.20995 | 24989 ft | 470 kts | 87° |
| 2026-04-22 01:02 | -17.68517 | 169.24475 | 25350 ft | 473 kts | 87° |
| 2026-04-22 01:03 | -17.68575 | 169.27896 | 25718 ft | 477 kts | 87° |
| 2026-04-22 01:03 | -17.68634 | 169.31377 | 26087 ft | 480 kts | 87° |
| 2026-04-22 01:03 | -17.68693 | 169.34896 | 26431 ft | 484 kts | 88° |
| 2026-04-22 01:03 | -17.68751 | 169.38436 | 26774 ft | 488 kts | 87° |
| 2026-04-22 01:04 | -17.68810 | 169.42005 | 27117 ft | 491 kts | 87° |
| 2026-04-22 01:04 | -17.68868 | 169.45613 | 27286 ft | 498 kts | 88° |
| 2026-04-22 01:04 | -17.68927 | 169.49278 | 27325 ft | 508 kts | 88° |
| 2026-04-22 01:04 | -17.68986 | 169.53023 | 27239 ft | 519 kts | 88° |
| 2026-04-22 01:05 | -17.69046 | 169.56849 | 27256 ft | 526 kts | 88° |
| 2026-04-22 01:05 | -17.69105 | 169.60679 | 27646 ft | 525 kts | 88° |
| 2026-04-22 01:05 | -17.69163 | 169.64507 | 27976 ft | 525 kts | 88° |
| 2026-04-22 01:05 | -17.69220 | 169.68339 | 28272 ft | 526 kts | 88° |
| 2026-04-22 01:06 | -17.69278 | 169.72171 | 28619 ft | 526 kts | 88° |
| 2026-04-22 01:06 | -17.69334 | 169.76011 | 28993 ft | 527 kts | 88° |
| 2026-04-22 01:06 | -17.69389 | 169.79863 | 29333 ft | 527 kts | 88° |
| 2026-04-22 01:06 | -17.69444 | 169.83709 | 29684 ft | 528 kts | 88° |
| 2026-04-22 01:07 | -17.69499 | 169.87571 | 30044 ft | 528 kts | 88° |
| 2026-04-22 01:07 | -17.69552 | 169.91420 | 30409 ft | 528 kts | 88° |
| 2026-04-22 01:07 | -17.69603 | 169.95229 | 30752 ft | 529 kts | 87° |
| 2026-04-22 01:07 | -17.69655 | 169.99093 | 31097 ft | 529 kts | 87° |
| 2026-04-22 01:08 | -17.69707 | 170.02953 | 31475 ft | 529 kts | 88° |
| 2026-04-22 01:08 | -17.69758 | 170.06804 | 31880 ft | 528 kts | 87° |
| 2026-04-22 01:08 | -17.69807 | 170.10660 | 32269 ft | 528 kts | 87° |
| 2026-04-22 01:08 | -17.69856 | 170.14512 | 32656 ft | 527 kts | 87° |
| 2026-04-22 01:09 | -17.69904 | 170.18358 | 33018 ft | 528 kts | 87° |
| 2026-04-22 01:09 | -17.69952 | 170.22203 | 33376 ft | 527 kts | 87° |
| 2026-04-22 01:09 | -17.69998 | 170.26046 | 33744 ft | 527 kts | 87° |
| 2026-04-22 01:09 | -17.70044 | 170.29894 | 34109 ft | 527 kts | 87° |
| 2026-04-22 01:10 | -17.70089 | 170.33738 | 34478 ft | 526 kts | 87° |
| 2026-04-22 01:10 | -17.70134 | 170.37569 | 34873 ft | 525 kts | 87° |
| 2026-04-22 01:10 | -17.70177 | 170.41343 | 35335 ft | 521 kts | 87° |
| 2026-04-22 01:10 | -17.70220 | 170.45141 | 35773 ft | 519 kts | 87° |
| 2026-04-22 01:11 | -17.70261 | 170.48913 | 36214 ft | 516 kts | 87° |
| 2026-04-22 01:11 | -17.70298 | 170.52668 | 36624 ft | 513 kts | 87° |
| 2026-04-22 01:11 | -17.70336 | 170.56401 | 36950 ft | 513 kts | 87° |
| 2026-04-22 01:11 | -17.70373 | 170.60140 | 36963 ft | 509 kts | 87° |
| 2026-04-22 01:12 | -17.70444 | 170.67529 | 36962 ft | 503 kts | 87° |
| 2026-04-22 01:12 | -17.70511 | 170.74848 | 36953 ft | 501 kts | 87° |
| 2026-04-22 01:13 | -17.70575 | 170.82095 | 36953 ft | 500 kts | 87° |
| 2026-04-22 01:13 | -17.70637 | 170.89399 | 36953 ft | 500 kts | 87° |
| 2026-04-22 01:14 | -17.70697 | 170.96684 | 36955 ft | 499 kts | 87° |
| 2026-04-22 01:14 | -17.70753 | 171.03957 | 36961 ft | 498 kts | 87° |
| 2026-04-22 01:15 | -17.70807 | 171.11227 | 36962 ft | 498 kts | 87° |
| 2026-04-22 01:15 | -17.70858 | 171.18459 | 36962 ft | 498 kts | 87° |
| 2026-04-22 01:16 | -17.70906 | 171.25726 | 36962 ft | 497 kts | 87° |
| 2026-04-22 01:16 | -17.70952 | 171.32980 | 36963 ft | 496 kts | 87° |
| 2026-04-22 01:17 | -17.70995 | 171.40221 | 36963 ft | 496 kts | 87° |
| 2026-04-22 01:17 | -17.71035 | 171.47451 | 36961 ft | 496 kts | 87° |
| 2026-04-22 01:18 | -17.71073 | 171.54680 | 36961 ft | 495 kts | 87° |
| 2026-04-22 01:18 | -17.71108 | 171.61908 | 36963 ft | 495 kts | 87° |
| 2026-04-22 01:19 | -17.71140 | 171.69128 | 36958 ft | 495 kts | 87° |
| 2026-04-22 01:19 | -17.71169 | 171.76301 | 36953 ft | 495 kts | 87° |
| 2026-04-22 01:20 | -17.71196 | 171.83521 | 36953 ft | 495 kts | 87° |
| 2026-04-22 01:20 | -17.71221 | 171.90738 | 36952 ft | 495 kts | 87° |
| 2026-04-22 01:21 | -17.71242 | 171.97959 | 36953 ft | 495 kts | 86° |
| 2026-04-22 01:21 | -17.71262 | 172.05164 | 36953 ft | 494 kts | 87° |
| 2026-04-22 01:22 | -17.71278 | 172.12377 | 36952 ft | 494 kts | 86° |
| 2026-04-22 01:22 | -17.71292 | 172.19594 | 36952 ft | 494 kts | 86° |
| 2026-04-22 01:23 | -17.71303 | 172.26799 | 36954 ft | 494 kts | 86° |
| 2026-04-22 01:23 | -17.71311 | 172.33967 | 36953 ft | 494 kts | 86° |
| 2026-04-22 01:24 | -17.71318 | 172.41166 | 36952 ft | 493 kts | 86° |
| 2026-04-22 01:24 | -17.71321 | 172.48359 | 36961 ft | 493 kts | 86° |
| 2026-04-22 01:25 | -17.71321 | 172.55548 | 36962 ft | 493 kts | 86° |
| 2026-04-22 01:25 | -17.71320 | 172.62740 | 36962 ft | 492 kts | 86° |
| 2026-04-22 01:26 | -17.71315 | 172.69915 | 36971 ft | 492 kts | 87° |
| 2026-04-22 01:26 | -17.71309 | 172.75877 | 36970 ft | 492 kts | 86° |
| 2026-04-22 01:27 | -17.71300 | 172.83049 | 36972 ft | 491 kts | 87° |
| 2026-04-22 01:27 | -17.71288 | 172.90215 | 36971 ft | 491 kts | 87° |
| 2026-04-22 01:28 | -17.71274 | 172.97361 | 36974 ft | 490 kts | 87° |
| 2026-04-22 01:28 | -17.71256 | 173.04507 | 36973 ft | 490 kts | 87° |
| 2026-04-22 01:29 | -17.71237 | 173.11655 | 36970 ft | 489 kts | 87° |
| 2026-04-22 01:29 | -17.71215 | 173.18797 | 36971 ft | 489 kts | 87° |
| 2026-04-22 01:30 | -17.71190 | 173.25926 | 36973 ft | 488 kts | 87° |
| 2026-04-22 01:30 | -17.71162 | 173.33051 | 36972 ft | 488 kts | 87° |
| 2026-04-22 01:31 | -17.71133 | 173.40133 | 36972 ft | 488 kts | 87° |
| 2026-04-22 01:31 | -17.71101 | 173.47248 | 36973 ft | 487 kts | 87° |
| 2026-04-22 01:32 | -17.71066 | 173.54364 | 36970 ft | 487 kts | 87° |
| 2026-04-22 01:32 | -17.71028 | 173.61478 | 36980 ft | 487 kts | 87° |
| 2026-04-22 01:33 | -17.70989 | 173.68588 | 36980 ft | 487 kts | 86° |
| 2026-04-22 01:33 | -17.70946 | 173.75649 | 36981 ft | 487 kts | 86° |
| 2026-04-22 01:34 | -17.70901 | 173.82745 | 36980 ft | 486 kts | 87° |
| 2026-04-22 01:34 | -17.70854 | 173.89850 | 36980 ft | 486 kts | 86° |
| 2026-04-22 01:35 | -17.70804 | 173.96946 | 36983 ft | 486 kts | 86° |
| 2026-04-22 01:35 | -17.70751 | 174.04034 | 36981 ft | 486 kts | 86° |
| 2026-04-22 01:36 | -17.70696 | 174.11121 | 36985 ft | 486 kts | 86° |
| 2026-04-22 01:36 | -17.70638 | 174.18208 | 36980 ft | 486 kts | 86° |
| 2026-04-22 01:37 | -17.70579 | 174.25251 | 36982 ft | 486 kts | 86° |
| 2026-04-22 01:37 | -17.70516 | 174.32346 | 36981 ft | 486 kts | 86° |
| 2026-04-22 01:38 | -17.70450 | 174.39431 | 36980 ft | 486 kts | 86° |
| 2026-04-22 01:38 | -17.70384 | 174.46519 | 36979 ft | 486 kts | 86° |
| 2026-04-22 01:39 | -17.70314 | 174.53601 | 36980 ft | 485 kts | 86° |
| 2026-04-22 01:39 | -17.70243 | 174.60675 | 36981 ft | 485 kts | 86° |
| 2026-04-22 01:40 | -17.70168 | 174.67761 | 36979 ft | 485 kts | 86° |
| 2026-04-22 01:40 | -17.70092 | 174.74831 | 36979 ft | 485 kts | 86° |
| 2026-04-22 01:41 | -17.70011 | 174.81851 | 36976 ft | 485 kts | 86° |
| 2026-04-22 01:41 | -17.69919 | 174.88928 | 36983 ft | 485 kts | 86° |
| 2026-04-22 01:42 | -17.69829 | 174.95995 | 36991 ft | 484 kts | 86° |
| 2026-04-22 01:42 | -17.69737 | 175.03058 | 36990 ft | 484 kts | 86° |
| 2026-04-22 01:43 | -17.69643 | 175.10114 | 36990 ft | 483 kts | 86° |
| 2026-04-22 01:43 | -17.69546 | 175.17158 | 36990 ft | 483 kts | 86° |
| 2026-04-22 01:44 | -17.69446 | 175.24207 | 36991 ft | 483 kts | 86° |
| 2026-04-22 01:44 | -17.69345 | 175.31214 | 36991 ft | 483 kts | 86° |
| 2026-04-22 01:45 | -17.69241 | 175.38257 | 36987 ft | 483 kts | 86° |
| 2026-04-22 01:45 | -17.69187 | 175.41777 | 36799 ft | 482 kts | 86° |
| 2026-04-22 01:45 | -17.69134 | 175.45287 | 36533 ft | 480 kts | 86° |
| 2026-04-22 01:46 | -17.69080 | 175.48783 | 36266 ft | 480 kts | 86° |
| 2026-04-22 01:46 | -17.69025 | 175.52277 | 35653 ft | 480 kts | 86° |
| 2026-04-22 01:46 | -17.68970 | 175.55806 | 34610 ft | 489 kts | 86° |
| 2026-04-22 01:46 | -17.68913 | 175.59389 | 33761 ft | 493 kts | 86° |
| 2026-04-22 01:47 | -17.68856 | 175.62935 | 33160 ft | 490 kts | 86° |
| 2026-04-22 01:47 | -17.68802 | 175.66507 | 32345 ft | 492 kts | 86° |
| 2026-04-22 01:47 | -17.68747 | 175.70118 | 31401 ft | 497 kts | 86° |
| 2026-04-22 01:47 | -17.68693 | 175.73744 | 30685 ft | 496 kts | 86° |
| 2026-04-22 01:48 | -17.68638 | 175.77341 | 30128 ft | 490 kts | 86° |
| 2026-04-22 01:48 | -17.68582 | 175.80908 | 29482 ft | 488 kts | 86° |
| 2026-04-22 01:48 | -17.68526 | 175.84480 | 28788 ft | 491 kts | 86° |
| 2026-04-22 01:48 | -17.68469 | 175.88055 | 28135 ft | 490 kts | 86° |
| 2026-04-22 01:49 | -17.68412 | 175.91611 | 27493 ft | 486 kts | 86° |
| 2026-04-22 01:49 | -17.68355 | 175.95141 | 26840 ft | 482 kts | 86° |
| 2026-04-22 01:49 | -17.68297 | 175.98645 | 26191 ft | 479 kts | 85° |
| 2026-04-22 01:49 | -17.68240 | 176.02123 | 25546 ft | 475 kts | 85° |
| 2026-04-22 01:50 | -17.68182 | 176.05533 | 24912 ft | 471 kts | 85° |
| 2026-04-22 01:50 | -17.68124 | 176.08960 | 24273 ft | 468 kts | 85° |
| 2026-04-22 01:50 | -17.68066 | 176.12358 | 23640 ft | 464 kts | 85° |
| 2026-04-22 01:50 | -17.68009 | 176.15724 | 23011 ft | 460 kts | 85° |
| 2026-04-22 01:51 | -17.67951 | 176.19058 | 22387 ft | 455 kts | 85° |
| 2026-04-22 01:51 | -17.67893 | 176.22362 | 21767 ft | 451 kts | 85° |
| 2026-04-22 01:51 | -17.67835 | 176.25636 | 21148 ft | 447 kts | 85° |
| 2026-04-22 01:51 | -17.67776 | 176.28881 | 20538 ft | 443 kts | 86° |
| 2026-04-22 01:52 | -17.67718 | 176.32103 | 19927 ft | 439 kts | 86° |
| 2026-04-22 01:52 | -17.67659 | 176.35292 | 19321 ft | 435 kts | 86° |
| 2026-04-22 01:52 | -17.67601 | 176.38446 | 18722 ft | 431 kts | 86° |
| 2026-04-22 01:52 | -17.67543 | 176.41571 | 18129 ft | 426 kts | 86° |
| 2026-04-22 01:53 | -17.67485 | 176.44666 | 17538 ft | 422 kts | 86° |
| 2026-04-22 01:53 | -17.67427 | 176.47729 | 16954 ft | 417 kts | 86° |
| 2026-04-22 01:53 | -17.67369 | 176.50753 | 16375 ft | 413 kts | 86° |
| 2026-04-22 01:53 | -17.67312 | 176.53747 | 15799 ft | 409 kts | 86° |
| 2026-04-22 01:54 | -17.67255 | 176.56673 | 15239 ft | 405 kts | 86° |
| 2026-04-22 01:54 | -17.67198 | 176.59613 | 14673 ft | 400 kts | 86° |
| 2026-04-22 01:54 | -17.67141 | 176.62521 | 14108 ft | 397 kts | 86° |
| 2026-04-22 01:54 | -17.67084 | 176.65400 | 13545 ft | 393 kts | 86° |
| 2026-04-22 01:55 | -17.67028 | 176.68246 | 12984 ft | 388 kts | 86° |
| 2026-04-22 01:55 | -17.66971 | 176.71066 | 12426 ft | 385 kts | 86° |
| 2026-04-22 01:55 | -17.66963 | 176.73857 | 11846 ft | 383 kts | 93° |
| 2026-04-22 01:55 | -17.67630 | 176.76562 | 11240 ft | 384 kts | 113° |
| 2026-04-22 01:56 | -17.68763 | 176.78994 | 11118 ft | 357 kts | 114° |
| 2026-04-22 01:56 | -17.69806 | 176.81249 | 10973 ft | 332 kts | 114° |
| 2026-04-22 01:56 | -17.70789 | 176.83354 | 10791 ft | 313 kts | 114° |
| 2026-04-22 01:56 | -17.71744 | 176.85393 | 10576 ft | 311 kts | 114° |
| 2026-04-22 01:57 | -17.72694 | 176.87418 | 10374 ft | 309 kts | 114° |
| 2026-04-22 01:57 | -17.73644 | 176.89439 | 10187 ft | 307 kts | 114° |
| 2026-04-22 01:57 | -17.74587 | 176.91446 | 9984 ft | 307 kts | 114° |
| 2026-04-22 01:57 | -17.75532 | 176.93457 | 9603 ft | 308 kts | 115° |
| 2026-04-22 01:58 | -17.76476 | 176.95469 | 9217 ft | 306 kts | 114° |
| 2026-04-22 01:58 | -17.77414 | 176.97466 | 8837 ft | 304 kts | 115° |
| 2026-04-22 01:58 | -17.78330 | 176.99420 | 8465 ft | 301 kts | 114° |
| 2026-04-22 01:58 | -17.79251 | 177.01381 | 8090 ft | 296 kts | 114° |
| 2026-04-22 01:59 | -17.80140 | 177.03277 | 7751 ft | 283 kts | 114° |
| 2026-04-22 01:59 | -17.80991 | 177.05093 | 7436 ft | 271 kts | 114° |
| 2026-04-22 01:59 | -17.81805 | 177.06829 | 7123 ft | 260 kts | 114° |
| 2026-04-22 01:59 | -17.82600 | 177.08526 | 6772 ft | 259 kts | 114° |
| 2026-04-22 02:00 | -17.83393 | 177.10218 | 6426 ft | 258 kts | 114° |
| 2026-04-22 02:00 | -17.84181 | 177.11901 | 6098 ft | 256 kts | 114° |
| 2026-04-22 02:00 | -17.84963 | 177.13571 | 5773 ft | 254 kts | 114° |
| 2026-04-22 02:00 | -17.85727 | 177.15205 | 5459 ft | 251 kts | 114° |
| 2026-04-22 02:01 | -17.86488 | 177.16830 | 5295 ft | 243 kts | 114° |
| 2026-04-22 02:01 | -17.87216 | 177.18385 | 5173 ft | 231 kts | 114° |
| 2026-04-22 02:01 | -17.87901 | 177.19850 | 5032 ft | 221 kts | 114° |
| 2026-04-22 02:01 | -17.88564 | 177.21269 | 4905 ft | 212 kts | 114° |
| 2026-04-22 02:02 | -17.89195 | 177.22614 | 4819 ft | 198 kts | 114° |
| 2026-04-22 02:02 | -17.89734 | 177.23899 | 4586 ft | 191 kts | 105° |
| 2026-04-22 02:02 | -17.90102 | 177.25255 | 4206 ft | 194 kts | 103° |
| 2026-04-22 02:02 | -17.90458 | 177.26614 | 3920 ft | 191 kts | 103° |
| 2026-04-22 02:03 | -17.90811 | 177.27942 | 3686 ft | 186 kts | 103° |
| 2026-04-22 02:03 | -17.91153 | 177.29227 | 3505 ft | 180 kts | 103° |
| 2026-04-22 02:03 | -17.91344 | 177.30516 | 3284 ft | 178 kts | 78° |
| 2026-04-22 02:03 | -17.90811 | 177.31658 | 3234 ft | 176 kts | 51° |
| 2026-04-22 02:04 | -17.89042 | 177.33418 | 2847 ft | 175 kts | 38° |
| 2026-04-22 02:04 | -17.88080 | 177.34204 | 2654 ft | 174 kts | 37° |
| 2026-04-22 02:04 | -17.87129 | 177.34971 | 2439 ft | 171 kts | 37° |
| 2026-04-22 02:05 | -17.86181 | 177.35730 | 2224 ft | 173 kts | 40° |
| 2026-04-22 02:05 | -17.85225 | 177.36507 | 1998 ft | 175 kts | 40° |
| 2026-04-22 02:05 | -17.84271 | 177.37276 | 1783 ft | 174 kts | 39° |
| 2026-04-22 02:05 | -17.83339 | 177.38029 | 1591 ft | 165 kts | 38° |
| 2026-04-22 02:06 | -17.82456 | 177.38741 | 1366 ft | 157 kts | 37° |
| 2026-04-22 02:06 | -17.81629 | 177.39406 | 1166 ft | 145 kts | 35° |
| 2026-04-22 02:06 | -17.80844 | 177.40039 | 967 ft | 139 kts | 35° |
| 2026-04-22 02:06 | -17.80073 | 177.40660 | 786 ft | 141 kts | 35° |
| 2026-04-22 02:07 | -17.79290 | 177.41289 | 600 ft | 141 kts | 35° |
| 2026-04-22 02:07 | -17.78506 | 177.41913 | 405 ft | 142 kts | 36° |
| 2026-04-22 02:07 | -17.77723 | 177.42534 | 237 ft | 140 kts | 36° |
| 2026-04-22 02:07 | -17.76957 | 177.43164 | 61 ft | 134 kts | 37° |
| 2026-04-22 02:08 | -17.76300 | 177.43692 | 48 ft | 100 kts | 37° |
| 2026-04-22 02:08 | -17.75796 | 177.44100 | 48 ft | 85 kts | 38° |
| 2026-04-22 02:08 | -17.75392 | 177.44419 | 49 ft | 46 kts | 38° |
| 2026-04-22 02:08 | -17.75174 | 177.44596 | 48 ft | 28 kts | 37° |
| 2026-04-22 02:09 | -17.75120 | 177.44728 | 49 ft | 21 kts | 97° |
| 2026-04-22 02:09 | -17.75146 | 177.44841 | 46 ft | 9 kts | 104° |
| 2026-04-22 02:09 | -17.75168 | 177.44905 | 47 ft | 10 kts | 128° |
| 2026-04-22 02:09 | -17.75233 | 177.44935 | 49 ft | 10 kts | 147° |
| 2026-04-22 02:10 | -17.75254 | 177.44987 | 49 ft | 4 kts | 102° |
| 2026-04-22 02:10 | -17.75255 | 177.44993 | 49 ft | 0 kts | 102° |